sensor_id;sensor_type;location;lat;lon;timestamp;P1;durP1;ratioP1;P2;durP2;ratioP2
22005;SDS011;11167;46.988;15.470;2022-08-21T00:01:13;0.98;;;0.50;;
22005;SDS011;11167;46.988;15.470;2022-08-21T00:03:16;0.50;;;0.50;;
22005;SDS011;11167;46.988;15.470;2022-08-21T00:05:17;0.30;;;0.30;;
22005;SDS011;11167;46.988;15.470;2022-08-21T00:07:19;0.30;;;0.30;;
22005;SDS011;11167;46.988;15.470;2022-08-21T00:09:20;0.37;;;0.35;;
22005;SDS011;11167;46.988;15.470;2022-08-21T00:11:21;0.65;;;0.40;;
22005;SDS011;11167;46.988;15.470;2022-08-21T00:13:23;0.30;;;0.30;;
22005;SDS011;11167;46.988;15.470;2022-08-21T00:15:25;0.45;;;0.40;;
22005;SDS011;11167;46.988;15.470;2022-08-21T00:17:28;0.40;;;0.40;;
22005;SDS011;11167;46.988;15.470;2022-08-21T00:19:30;0.70;;;0.42;;
22005;SDS011;11167;46.988;15.470;2022-08-21T00:21:32;0.50;;;0.50;;
22005;SDS011;11167;46.988;15.470;2022-08-21T00:23:34;1.40;;;0.50;;
22005;SDS011;11167;46.988;15.470;2022-08-21T00:25:36;0.62;;;0.47;;
22005;SDS011;11167;46.988;15.470;2022-08-21T00:27:37;0.50;;;0.40;;
22005;SDS011;11167;46.988;15.470;2022-08-21T00:29:38;0.35;;;0.35;;
22005;SDS011;11167;46.988;15.470;2022-08-21T00:31:39;0.50;;;0.50;;
22005;SDS011;11167;46.988;15.470;2022-08-21T00:33:42;0.45;;;0.45;;
22005;SDS011;11167;46.988;15.470;2022-08-21T00:35:43;0.35;;;0.35;;
22005;SDS011;11167;46.988;15.470;2022-08-21T00:37:44;0.20;;;0.20;;
22005;SDS011;11167;46.988;15.470;2022-08-21T00:39:45;1.62;;;0.50;;
22005;SDS011;11167;46.988;15.470;2022-08-21T00:41:47;0.23;;;0.23;;
22005;SDS011;11167;46.988;15.470;2022-08-21T00:43:49;1.17;;;0.30;;
22005;SDS011;11167;46.988;15.470;2022-08-21T00:45:51;0.33;;;0.33;;
22005;SDS011;11167;46.988;15.470;2022-08-21T00:47:53;0.85;;;0.50;;
22005;SDS011;11167;46.988;15.470;2022-08-21T00:49:55;0.53;;;0.30;;
22005;SDS011;11167;46.988;15.470;2022-08-21T00:51:57;1.85;;;0.50;;
22005;SDS011;11167;46.988;15.470;2022-08-21T00:54:00;0.30;;;0.30;;
22005;SDS011;11167;46.988;15.470;2022-08-21T00:56:03;0.45;;;0.33;;
22005;SDS011;11167;46.988;15.470;2022-08-21T00:58:07;1.00;;;0.60;;
22005;SDS011;11167;46.988;15.470;2022-08-21T01:00:12;1.75;;;0.45;;
22005;SDS011;11167;46.988;15.470;2022-08-21T01:02:16;0.30;;;0.30;;
22005;SDS011;11167;46.988;15.470;2022-08-21T01:04:18;0.42;;;0.35;;
22005;SDS011;11167;46.988;15.470;2022-08-21T01:06:20;0.47;;;0.47;;
22005;SDS011;11167;46.988;15.470;2022-08-21T01:08:21;0.40;;;0.40;;
22005;SDS011;11167;46.988;15.470;2022-08-21T01:10:24;0.30;;;0.30;;
22005;SDS011;11167;46.988;15.470;2022-08-21T01:12:25;0.40;;;0.40;;
22005;SDS011;11167;46.988;15.470;2022-08-21T01:14:27;0.30;;;0.30;;
22005;SDS011;11167;46.988;15.470;2022-08-21T01:16:29;0.40;;;0.40;;
22005;SDS011;11167;46.988;15.470;2022-08-21T01:18:30;0.78;;;0.50;;
22005;SDS011;11167;46.988;15.470;2022-08-21T01:20:33;0.50;;;0.50;;
22005;SDS011;11167;46.988;15.470;2022-08-21T01:22:34;1.25;;;0.57;;
22005;SDS011;11167;46.988;15.470;2022-08-21T01:24:36;0.40;;;0.40;;
22005;SDS011;11167;46.988;15.470;2022-08-21T01:26:37;1.65;;;0.35;;
22005;SDS011;11167;46.988;15.470;2022-08-21T01:28:40;0.40;;;0.37;;
22005;SDS011;11167;46.988;15.470;2022-08-21T01:30:43;0.40;;;0.40;;
22005;SDS011;11167;46.988;15.470;2022-08-21T01:32:45;0.50;;;0.40;;
22005;SDS011;11167;46.988;15.470;2022-08-21T01:34:48;0.37;;;0.37;;
22005;SDS011;11167;46.988;15.470;2022-08-21T01:36:51;0.40;;;0.40;;
22005;SDS011;11167;46.988;15.470;2022-08-21T01:38:52;0.30;;;0.30;;
22005;SDS011;11167;46.988;15.470;2022-08-21T01:40:54;0.70;;;0.40;;
22005;SDS011;11167;46.988;15.470;2022-08-21T01:42:55;0.45;;;0.40;;
22005;SDS011;11167;46.988;15.470;2022-08-21T01:44:56;0.50;;;0.40;;
22005;SDS011;11167;46.988;15.470;2022-08-21T01:46:57;2.27;;;0.47;;
22005;SDS011;11167;46.988;15.470;2022-08-21T01:49:01;0.65;;;0.50;;
22005;SDS011;11167;46.988;15.470;2022-08-21T01:51:02;0.33;;;0.33;;
22005;SDS011;11167;46.988;15.470;2022-08-21T01:53:04;0.42;;;0.42;;
22005;SDS011;11167;46.988;15.470;2022-08-21T01:55:06;0.95;;;0.57;;
22005;SDS011;11167;46.988;15.470;2022-08-21T01:57:09;0.40;;;0.40;;
22005;SDS011;11167;46.988;15.470;2022-08-21T01:59:11;0.50;;;0.50;;
22005;SDS011;11167;46.988;15.470;2022-08-21T02:01:13;0.40;;;0.40;;
22005;SDS011;11167;46.988;15.470;2022-08-21T02:03:15;0.50;;;0.40;;
22005;SDS011;11167;46.988;15.470;2022-08-21T02:05:17;0.40;;;0.40;;
22005;SDS011;11167;46.988;15.470;2022-08-21T02:07:19;0.30;;;0.30;;
22005;SDS011;11167;46.988;15.470;2022-08-21T02:09:20;0.53;;;0.40;;
22005;SDS011;11167;46.988;15.470;2022-08-21T02:11:22;0.40;;;0.40;;
22005;SDS011;11167;46.988;15.470;2022-08-21T02:13:23;0.35;;;0.30;;
22005;SDS011;11167;46.988;15.470;2022-08-21T02:15:24;0.35;;;0.35;;
22005;SDS011;11167;46.988;15.470;2022-08-21T02:17:26;1.02;;;0.35;;
22005;SDS011;11167;46.988;15.470;2022-08-21T02:19:27;0.50;;;0.50;;
22005;SDS011;11167;46.988;15.470;2022-08-21T02:21:28;0.40;;;0.40;;
22005;SDS011;11167;46.988;15.470;2022-08-21T02:23:29;0.40;;;0.40;;
22005;SDS011;11167;46.988;15.470;2022-08-21T02:25:31;0.95;;;0.40;;
22005;SDS011;11167;46.988;15.470;2022-08-21T02:27:42;0.75;;;0.30;;
22005;SDS011;11167;46.988;15.470;2022-08-21T02:29:40;0.53;;;0.40;;
22005;SDS011;11167;46.988;15.470;2022-08-21T02:31:41;0.50;;;0.40;;
22005;SDS011;11167;46.988;15.470;2022-08-21T02:33:42;0.50;;;0.50;;
22005;SDS011;11167;46.988;15.470;2022-08-21T02:35:45;0.60;;;0.60;;
22005;SDS011;11167;46.988;15.470;2022-08-21T02:37:48;0.50;;;0.50;;
22005;SDS011;11167;46.988;15.470;2022-08-21T02:39:52;0.40;;;0.40;;
22005;SDS011;11167;46.988;15.470;2022-08-21T02:41:53;0.55;;;0.40;;
22005;SDS011;11167;46.988;15.470;2022-08-21T02:43:54;0.40;;;0.40;;
22005;SDS011;11167;46.988;15.470;2022-08-21T02:45:56;0.50;;;0.50;;
22005;SDS011;11167;46.988;15.470;2022-08-21T02:48:00;0.50;;;0.50;;
22005;SDS011;11167;46.988;15.470;2022-08-21T02:50:06;1.20;;;0.60;;
22005;SDS011;11167;46.988;15.470;2022-08-21T02:52:08;0.40;;;0.40;;
22005;SDS011;11167;46.988;15.470;2022-08-21T02:54:10;1.35;;;0.50;;
22005;SDS011;11167;46.988;15.470;2022-08-21T02:56:12;0.50;;;0.50;;
22005;SDS011;11167;46.988;15.470;2022-08-21T02:58:15;0.65;;;0.60;;
22005;SDS011;11167;46.988;15.470;2022-08-21T03:00:18;0.50;;;0.50;;
22005;SDS011;11167;46.988;15.470;2022-08-21T03:02:21;0.70;;;0.60;;
22005;SDS011;11167;46.988;15.470;2022-08-21T03:04:22;0.40;;;0.40;;
22005;SDS011;11167;46.988;15.470;2022-08-21T03:06:23;0.50;;;0.50;;
22005;SDS011;11167;46.988;15.470;2022-08-21T03:08:25;0.53;;;0.40;;
22005;SDS011;11167;46.988;15.470;2022-08-21T03:10:26;0.40;;;0.40;;
22005;SDS011;11167;46.988;15.470;2022-08-21T03:12:27;0.98;;;0.45;;
22005;SDS011;11167;46.988;15.470;2022-08-21T03:14:28;1.67;;;0.40;;
22005;SDS011;11167;46.988;15.470;2022-08-21T03:16:29;0.53;;;0.50;;
22005;SDS011;11167;46.988;15.470;2022-08-21T03:18:31;0.50;;;0.50;;
22005;SDS011;11167;46.988;15.470;2022-08-21T03:20:32;0.40;;;0.40;;
22005;SDS011;11167;46.988;15.470;2022-08-21T03:22:34;0.90;;;0.60;;
22005;SDS011;11167;46.988;15.470;2022-08-21T03:24:35;0.60;;;0.50;;
22005;SDS011;11167;46.988;15.470;2022-08-21T03:26:38;0.50;;;0.50;;
22005;SDS011;11167;46.988;15.470;2022-08-21T03:28:39;0.60;;;0.50;;
22005;SDS011;11167;46.988;15.470;2022-08-21T03:30:41;0.57;;;0.50;;
22005;SDS011;11167;46.988;15.470;2022-08-21T03:32:42;0.90;;;0.50;;
22005;SDS011;11167;46.988;15.470;2022-08-21T03:34:43;2.65;;;0.50;;
22005;SDS011;11167;46.988;15.470;2022-08-21T03:36:45;0.65;;;0.50;;
22005;SDS011;11167;46.988;15.470;2022-08-21T03:38:46;1.60;;;0.60;;
22005;SDS011;11167;46.988;15.470;2022-08-21T03:40:47;1.20;;;0.70;;
22005;SDS011;11167;46.988;15.470;2022-08-21T03:42:48;1.22;;;0.60;;
22005;SDS011;11167;46.988;15.470;2022-08-21T03:44:49;0.60;;;0.60;;
22005;SDS011;11167;46.988;15.470;2022-08-21T03:46:51;1.50;;;0.50;;
22005;SDS011;11167;46.988;15.470;2022-08-21T03:48:52;0.88;;;0.70;;
22005;SDS011;11167;46.988;15.470;2022-08-21T03:50:53;0.50;;;0.50;;
22005;SDS011;11167;46.988;15.470;2022-08-21T03:52:56;0.57;;;0.50;;
22005;SDS011;11167;46.988;15.470;2022-08-21T03:54:57;0.60;;;0.60;;
22005;SDS011;11167;46.988;15.470;2022-08-21T03:56:58;2.12;;;0.65;;
22005;SDS011;11167;46.988;15.470;2022-08-21T03:59:00;0.60;;;0.60;;
22005;SDS011;11167;46.988;15.470;2022-08-21T04:01:03;1.67;;;0.60;;
22005;SDS011;11167;46.988;15.470;2022-08-21T04:03:05;1.25;;;0.60;;
22005;SDS011;11167;46.988;15.470;2022-08-21T04:05:07;0.40;;;0.40;;
22005;SDS011;11167;46.988;15.470;2022-08-21T04:07:09;1.50;;;0.75;;
22005;SDS011;11167;46.988;15.470;2022-08-21T04:09:10;0.80;;;0.80;;
22005;SDS011;11167;46.988;15.470;2022-08-21T04:11:13;0.53;;;0.50;;
22005;SDS011;11167;46.988;15.470;2022-08-21T04:15:16;0.57;;;0.57;;
22005;SDS011;11167;46.988;15.470;2022-08-21T04:17:19;0.72;;;0.50;;
22005;SDS011;11167;46.988;15.470;2022-08-21T04:19:24;1.00;;;0.53;;
22005;SDS011;11167;46.988;15.470;2022-08-21T04:21:25;2.15;;;0.62;;
22005;SDS011;11167;46.988;15.470;2022-08-21T04:23:26;2.15;;;0.50;;
22005;SDS011;11167;46.988;15.470;2022-08-21T04:25:28;0.53;;;0.50;;
22005;SDS011;11167;46.988;15.470;2022-08-21T04:27:29;0.62;;;0.60;;
22005;SDS011;11167;46.988;15.470;2022-08-21T04:29:31;0.60;;;0.60;;
22005;SDS011;11167;46.988;15.470;2022-08-21T04:31:33;0.60;;;0.60;;
22005;SDS011;11167;46.988;15.470;2022-08-21T04:33:39;0.53;;;0.53;;
22005;SDS011;11167;46.988;15.470;2022-08-21T04:35:40;1.30;;;0.70;;
22005;SDS011;11167;46.988;15.470;2022-08-21T04:37:42;0.85;;;0.85;;
22005;SDS011;11167;46.988;15.470;2022-08-21T04:39:43;0.90;;;0.60;;
22005;SDS011;11167;46.988;15.470;2022-08-21T04:41:44;0.80;;;0.70;;
22005;SDS011;11167;46.988;15.470;2022-08-21T04:43:46;0.80;;;0.70;;
22005;SDS011;11167;46.988;15.470;2022-08-21T04:45:47;0.80;;;0.53;;
22005;SDS011;11167;46.988;15.470;2022-08-21T04:47:50;0.55;;;0.55;;
22005;SDS011;11167;46.988;15.470;2022-08-21T04:49:52;3.77;;;0.77;;
22005;SDS011;11167;46.988;15.470;2022-08-21T04:51:53;1.62;;;0.53;;
22005;SDS011;11167;46.988;15.470;2022-08-21T04:54:06;0.80;;;0.78;;
22005;SDS011;11167;46.988;15.470;2022-08-21T04:56:06;1.37;;;0.65;;
22005;SDS011;11167;46.988;15.470;2022-08-21T04:58:10;0.60;;;0.60;;
22005;SDS011;11167;46.988;15.470;2022-08-21T05:00:14;0.72;;;0.62;;
22005;SDS011;11167;46.988;15.470;2022-08-21T05:02:18;0.70;;;0.60;;
22005;SDS011;11167;46.988;15.470;2022-08-21T05:04:21;0.78;;;0.60;;
22005;SDS011;11167;46.988;15.470;2022-08-21T05:06:24;1.22;;;0.80;;
22005;SDS011;11167;46.988;15.470;2022-08-21T05:08:28;0.72;;;0.72;;
22005;SDS011;11167;46.988;15.470;2022-08-21T05:10:29;0.70;;;0.65;;
22005;SDS011;11167;46.988;15.470;2022-08-21T05:12:32;1.55;;;0.80;;
22005;SDS011;11167;46.988;15.470;2022-08-21T05:14:33;2.10;;;0.60;;
22005;SDS011;11167;46.988;15.470;2022-08-21T05:16:35;0.93;;;0.70;;
22005;SDS011;11167;46.988;15.470;2022-08-21T05:18:36;0.68;;;0.50;;
22005;SDS011;11167;46.988;15.470;2022-08-21T05:20:38;1.87;;;0.70;;
22005;SDS011;11167;46.988;15.470;2022-08-21T05:22:39;0.72;;;0.72;;
22005;SDS011;11167;46.988;15.470;2022-08-21T05:24:40;0.75;;;0.65;;
22005;SDS011;11167;46.988;15.470;2022-08-21T05:26:41;0.80;;;0.70;;
22005;SDS011;11167;46.988;15.470;2022-08-21T05:28:42;0.72;;;0.60;;
22005;SDS011;11167;46.988;15.470;2022-08-21T05:30:44;0.78;;;0.70;;
22005;SDS011;11167;46.988;15.470;2022-08-21T05:32:45;0.90;;;0.70;;
22005;SDS011;11167;46.988;15.470;2022-08-21T05:34:48;0.72;;;0.68;;
22005;SDS011;11167;46.988;15.470;2022-08-21T05:36:49;0.65;;;0.55;;
22005;SDS011;11167;46.988;15.470;2022-08-21T05:38:50;3.90;;;0.88;;
22005;SDS011;11167;46.988;15.470;2022-08-21T05:40:52;0.95;;;0.82;;
22005;SDS011;11167;46.988;15.470;2022-08-21T05:42:54;0.95;;;0.82;;
22005;SDS011;11167;46.988;15.470;2022-08-21T05:44:56;1.52;;;0.80;;
22005;SDS011;11167;46.988;15.470;2022-08-21T05:47:03;0.70;;;0.60;;
22005;SDS011;11167;46.988;15.470;2022-08-21T05:49:07;0.88;;;0.80;;
22005;SDS011;11167;46.988;15.470;2022-08-21T05:51:10;0.85;;;0.60;;
22005;SDS011;11167;46.988;15.470;2022-08-21T05:53:13;1.27;;;0.80;;
22005;SDS011;11167;46.988;15.470;2022-08-21T05:55:15;0.75;;;0.70;;
22005;SDS011;11167;46.988;15.470;2022-08-21T05:57:16;0.60;;;0.60;;
22005;SDS011;11167;46.988;15.470;2022-08-21T05:59:17;1.42;;;0.80;;
22005;SDS011;11167;46.988;15.470;2022-08-21T06:01:19;0.80;;;0.80;;
22005;SDS011;11167;46.988;15.470;2022-08-21T06:03:21;0.72;;;0.70;;
22005;SDS011;11167;46.988;15.470;2022-08-21T06:05:25;0.53;;;0.53;;
22005;SDS011;11167;46.988;15.470;2022-08-21T06:07:26;0.80;;;0.80;;
22005;SDS011;11167;46.988;15.470;2022-08-21T06:09:28;0.60;;;0.60;;
22005;SDS011;11167;46.988;15.470;2022-08-21T06:11:29;1.15;;;0.62;;
22005;SDS011;11167;46.988;15.470;2022-08-21T06:13:30;1.47;;;0.70;;
22005;SDS011;11167;46.988;15.470;2022-08-21T06:15:32;0.80;;;0.80;;
22005;SDS011;11167;46.988;15.470;2022-08-21T06:17:33;0.90;;;0.80;;
22005;SDS011;11167;46.988;15.470;2022-08-21T06:19:34;0.95;;;0.80;;
22005;SDS011;11167;46.988;15.470;2022-08-21T06:21:36;1.07;;;0.78;;
22005;SDS011;11167;46.988;15.470;2022-08-21T06:23:37;0.90;;;0.90;;
22005;SDS011;11167;46.988;15.470;2022-08-21T06:25:38;0.75;;;0.75;;
22005;SDS011;11167;46.988;15.470;2022-08-21T06:27:39;1.85;;;0.80;;
22005;SDS011;11167;46.988;15.470;2022-08-21T06:29:40;1.15;;;0.85;;
22005;SDS011;11167;46.988;15.470;2022-08-21T06:31:42;1.02;;;0.62;;
22005;SDS011;11167;46.988;15.470;2022-08-21T06:33:44;1.30;;;0.70;;
22005;SDS011;11167;46.988;15.470;2022-08-21T06:35:46;0.98;;;0.80;;
22005;SDS011;11167;46.988;15.470;2022-08-21T06:37:47;0.70;;;0.70;;
22005;SDS011;11167;46.988;15.470;2022-08-21T06:39:48;0.78;;;0.70;;
22005;SDS011;11167;46.988;15.470;2022-08-21T06:41:49;0.82;;;0.60;;
22005;SDS011;11167;46.988;15.470;2022-08-21T06:43:50;0.93;;;0.62;;
22005;SDS011;11167;46.988;15.470;2022-08-21T06:45:52;0.70;;;0.70;;
22005;SDS011;11167;46.988;15.470;2022-08-21T06:47:53;0.95;;;0.70;;
22005;SDS011;11167;46.988;15.470;2022-08-21T06:49:54;0.60;;;0.60;;
22005;SDS011;11167;46.988;15.470;2022-08-21T06:51:55;1.80;;;0.80;;
22005;SDS011;11167;46.988;15.470;2022-08-21T06:53:56;0.90;;;0.70;;
22005;SDS011;11167;46.988;15.470;2022-08-21T06:55:57;0.72;;;0.65;;
22005;SDS011;11167;46.988;15.470;2022-08-21T06:57:59;0.72;;;0.70;;
22005;SDS011;11167;46.988;15.470;2022-08-21T07:00:01;1.12;;;0.88;;
22005;SDS011;11167;46.988;15.470;2022-08-21T07:02:05;0.65;;;0.65;;
22005;SDS011;11167;46.988;15.470;2022-08-21T07:04:06;0.90;;;0.90;;
22005;SDS011;11167;46.988;15.470;2022-08-21T07:06:07;0.80;;;0.78;;
22005;SDS011;11167;46.988;15.470;2022-08-21T07:08:10;0.90;;;0.80;;
22005;SDS011;11167;46.988;15.470;2022-08-21T07:10:11;1.02;;;0.80;;
22005;SDS011;11167;46.988;15.470;2022-08-21T07:12:12;0.68;;;0.68;;
22005;SDS011;11167;46.988;15.470;2022-08-21T07:14:13;1.30;;;0.90;;
22005;SDS011;11167;46.988;15.470;2022-08-21T07:16:15;1.00;;;0.85;;
22005;SDS011;11167;46.988;15.470;2022-08-21T07:18:16;0.80;;;0.78;;
22005;SDS011;11167;46.988;15.470;2022-08-21T07:20:17;0.82;;;0.80;;
22005;SDS011;11167;46.988;15.470;2022-08-21T07:22:19;0.70;;;0.70;;
22005;SDS011;11167;46.988;15.470;2022-08-21T07:24:21;0.70;;;0.70;;
22005;SDS011;11167;46.988;15.470;2022-08-21T07:26:23;0.70;;;0.70;;
22005;SDS011;11167;46.988;15.470;2022-08-21T07:28:24;0.80;;;0.80;;
22005;SDS011;11167;46.988;15.470;2022-08-21T07:30:25;0.82;;;0.80;;
22005;SDS011;11167;46.988;15.470;2022-08-21T07:32:27;0.70;;;0.70;;
22005;SDS011;11167;46.988;15.470;2022-08-21T07:34:28;0.75;;;0.75;;
22005;SDS011;11167;46.988;15.470;2022-08-21T07:36:29;0.65;;;0.65;;
22005;SDS011;11167;46.988;15.470;2022-08-21T07:38:30;0.80;;;0.80;;
22005;SDS011;11167;46.988;15.470;2022-08-21T07:40:31;1.12;;;0.70;;
22005;SDS011;11167;46.988;15.470;2022-08-21T07:42:32;0.70;;;0.70;;
22005;SDS011;11167;46.988;15.470;2022-08-21T07:44:34;1.00;;;0.80;;
22005;SDS011;11167;46.988;15.470;2022-08-21T07:46:35;2.00;;;0.60;;
22005;SDS011;11167;46.988;15.470;2022-08-21T07:48:36;0.88;;;0.88;;
22005;SDS011;11167;46.988;15.470;2022-08-21T07:50:37;0.78;;;0.72;;
22005;SDS011;11167;46.988;15.470;2022-08-21T07:52:40;0.68;;;0.65;;
22005;SDS011;11167;46.988;15.470;2022-08-21T07:54:42;0.90;;;0.60;;
22005;SDS011;11167;46.988;15.470;2022-08-21T07:56:43;0.70;;;0.70;;
22005;SDS011;11167;46.988;15.470;2022-08-21T07:58:44;0.85;;;0.85;;
22005;SDS011;11167;46.988;15.470;2022-08-21T08:00:45;0.70;;;0.70;;
22005;SDS011;11167;46.988;15.470;2022-08-21T08:02:47;0.75;;;0.70;;
22005;SDS011;11167;46.988;15.470;2022-08-21T08:04:50;0.78;;;0.78;;
22005;SDS011;11167;46.988;15.470;2022-08-21T08:06:51;0.50;;;0.50;;
22005;SDS011;11167;46.988;15.470;2022-08-21T08:08:52;1.30;;;0.70;;
22005;SDS011;11167;46.988;15.470;2022-08-21T08:10:54;0.62;;;0.62;;
22005;SDS011;11167;46.988;15.470;2022-08-21T08:12:57;0.72;;;0.72;;
22005;SDS011;11167;46.988;15.470;2022-08-21T08:14:59;0.88;;;0.78;;
22005;SDS011;11167;46.988;15.470;2022-08-21T08:17:02;0.60;;;0.60;;
22005;SDS011;11167;46.988;15.470;2022-08-21T08:19:03;0.72;;;0.60;;
22005;SDS011;11167;46.988;15.470;2022-08-21T08:21:04;0.68;;;0.62;;
22005;SDS011;11167;46.988;15.470;2022-08-21T08:23:06;0.60;;;0.60;;
22005;SDS011;11167;46.988;15.470;2022-08-21T08:25:11;0.93;;;0.70;;
22005;SDS011;11167;46.988;15.470;2022-08-21T08:27:13;0.80;;;0.70;;
22005;SDS011;11167;46.988;15.470;2022-08-21T08:31:36;0.80;;;0.60;;
22005;SDS011;11167;46.988;15.470;2022-08-21T08:33:37;0.60;;;0.60;;
22005;SDS011;11167;46.988;15.470;2022-08-21T08:35:38;0.55;;;0.55;;
22005;SDS011;11167;46.988;15.470;2022-08-21T08:37:41;0.78;;;0.78;;
22005;SDS011;11167;46.988;15.470;2022-08-21T08:39:43;0.70;;;0.70;;
22005;SDS011;11167;46.988;15.470;2022-08-21T08:41:44;0.50;;;0.50;;
22005;SDS011;11167;46.988;15.470;2022-08-21T08:43:52;0.72;;;0.72;;
22005;SDS011;11167;46.988;15.470;2022-08-21T08:45:53;0.70;;;0.70;;
22005;SDS011;11167;46.988;15.470;2022-08-21T08:47:58;0.70;;;0.68;;
22005;SDS011;11167;46.988;15.470;2022-08-21T08:50:10;0.50;;;0.50;;
22005;SDS011;11167;46.988;15.470;2022-08-21T08:52:20;0.50;;;0.50;;
22005;SDS011;11167;46.988;15.470;2022-08-21T08:54:40;0.70;;;0.70;;
22005;SDS011;11167;46.988;15.470;2022-08-21T08:56:39;0.53;;;0.53;;
22005;SDS011;11167;46.988;15.470;2022-08-21T08:58:42;0.78;;;0.60;;
22005;SDS011;11167;46.988;15.470;2022-08-21T09:00:46;0.60;;;0.60;;
22005;SDS011;11167;46.988;15.470;2022-08-21T09:02:51;0.62;;;0.62;;
22005;SDS011;11167;46.988;15.470;2022-08-21T09:04:54;0.72;;;0.60;;
22005;SDS011;11167;46.988;15.470;2022-08-21T09:07:12;0.70;;;0.70;;
22005;SDS011;11167;46.988;15.470;2022-08-21T09:11:44;0.80;;;0.60;;
22005;SDS011;11167;46.988;15.470;2022-08-21T09:16:30;0.50;;;0.50;;
22005;SDS011;11167;46.988;15.470;2022-08-21T09:25:38;0.57;;;0.57;;
22005;SDS011;11167;46.988;15.470;2022-08-21T09:27:35;0.60;;;0.60;;
22005;SDS011;11167;46.988;15.470;2022-08-21T09:29:42;0.60;;;0.60;;
22005;SDS011;11167;46.988;15.470;2022-08-21T09:31:41;0.68;;;0.68;;
22005;SDS011;11167;46.988;15.470;2022-08-21T09:33:43;0.50;;;0.50;;
22005;SDS011;11167;46.988;15.470;2022-08-21T09:35:48;0.53;;;0.53;;
22005;SDS011;11167;46.988;15.470;2022-08-21T09:38:03;0.65;;;0.65;;
22005;SDS011;11167;46.988;15.470;2022-08-21T09:40:55;0.60;;;0.60;;
22005;SDS011;11167;46.988;15.470;2022-08-21T09:42:23;0.65;;;0.65;;
22005;SDS011;11167;46.988;15.470;2022-08-21T09:44:27;0.50;;;0.50;;
22005;SDS011;11167;46.988;15.470;2022-08-21T09:46:30;0.60;;;0.60;;
22005;SDS011;11167;46.988;15.470;2022-08-21T09:48:38;0.72;;;0.72;;
22005;SDS011;11167;46.988;15.470;2022-08-21T09:50:42;0.60;;;0.60;;
22005;SDS011;11167;46.988;15.470;2022-08-21T09:52:50;0.50;;;0.50;;
22005;SDS011;11167;46.988;15.470;2022-08-21T09:54:51;0.60;;;0.60;;
22005;SDS011;11167;46.988;15.470;2022-08-21T09:56:56;0.50;;;0.50;;
22005;SDS011;11167;46.988;15.470;2022-08-21T10:01:23;0.85;;;0.70;;
22005;SDS011;11167;46.988;15.470;2022-08-21T10:03:26;0.70;;;0.70;;
22005;SDS011;11167;46.988;15.470;2022-08-21T10:05:27;0.80;;;0.60;;
22005;SDS011;11167;46.988;15.470;2022-08-21T10:07:29;0.42;;;0.42;;
22005;SDS011;11167;46.988;15.470;2022-08-21T10:09:32;0.60;;;0.50;;
22005;SDS011;11167;46.988;15.470;2022-08-21T10:11:33;0.68;;;0.68;;
22005;SDS011;11167;46.988;15.470;2022-08-21T10:24:48;0.47;;;0.47;;
22005;SDS011;11167;46.988;15.470;2022-08-21T10:31:32;0.55;;;0.50;;
22005;SDS011;11167;46.988;15.470;2022-08-21T10:40:40;0.60;;;0.60;;
22005;SDS011;11167;46.988;15.470;2022-08-21T10:45:14;1.00;;;0.62;;
22005;SDS011;11167;46.988;15.470;2022-08-21T10:47:22;0.65;;;0.65;;
22005;SDS011;11167;46.988;15.470;2022-08-21T10:49:46;0.63;;;0.63;;
22005;SDS011;11167;46.988;15.470;2022-08-21T10:56:59;2.15;;;0.70;;
22005;SDS011;11167;46.988;15.470;2022-08-21T10:59:16;0.70;;;0.70;;
22005;SDS011;11167;46.988;15.470;2022-08-21T11:01:18;1.00;;;0.60;;
22005;SDS011;11167;46.988;15.470;2022-08-21T11:03:37;0.70;;;0.60;;
22005;SDS011;11167;46.988;15.470;2022-08-21T11:05:54;0.60;;;0.60;;
22005;SDS011;11167;46.988;15.470;2022-08-21T11:08:00;0.60;;;0.60;;
22005;SDS011;11167;46.988;15.470;2022-08-21T11:10:24;0.62;;;0.62;;
22005;SDS011;11167;46.988;15.470;2022-08-21T11:24:33;0.72;;;0.72;;
22005;SDS011;11167;46.988;15.470;2022-08-21T11:29:17;0.90;;;0.80;;
22005;SDS011;11167;46.988;15.470;2022-08-21T11:36:30;0.70;;;0.70;;
22005;SDS011;11167;46.988;15.470;2022-08-21T11:38:40;0.53;;;0.53;;
22005;SDS011;11167;46.988;15.470;2022-08-21T11:43:10;0.40;;;0.40;;
22005;SDS011;11167;46.988;15.470;2022-08-21T11:45:31;0.57;;;0.50;;
22005;SDS011;11167;46.988;15.470;2022-08-21T11:47:43;0.42;;;0.42;;
22005;SDS011;11167;46.988;15.470;2022-08-21T11:54:38;0.40;;;0.40;;
22005;SDS011;11167;46.988;15.470;2022-08-21T11:56:40;0.40;;;0.40;;
22005;SDS011;11167;46.988;15.470;2022-08-21T11:58:53;0.42;;;0.42;;
22005;SDS011;11167;46.988;15.470;2022-08-21T12:00:56;0.30;;;0.30;;
22005;SDS011;11167;46.988;15.470;2022-08-21T12:03:07;0.30;;;0.30;;
22005;SDS011;11167;46.988;15.470;2022-08-21T12:05:23;0.40;;;0.40;;
22005;SDS011;11167;46.988;15.470;2022-08-21T12:09:50;0.30;;;0.30;;
22005;SDS011;11167;46.988;15.470;2022-08-21T12:16:14;0.50;;;0.50;;
22005;SDS011;11167;46.988;15.470;2022-08-21T12:18:29;0.40;;;0.40;;
22005;SDS011;11167;46.988;15.470;2022-08-21T12:22:37;0.50;;;0.40;;
22005;SDS011;11167;46.988;15.470;2022-08-21T12:24:50;0.47;;;0.47;;
22005;SDS011;11167;46.988;15.470;2022-08-21T12:26:54;0.93;;;0.40;;
22005;SDS011;11167;46.988;15.470;2022-08-21T12:29:10;0.40;;;0.40;;
22005;SDS011;11167;46.988;15.470;2022-08-21T12:31:18;0.98;;;0.50;;
22005;SDS011;11167;46.988;15.470;2022-08-21T12:33:35;0.88;;;0.37;;
22005;SDS011;11167;46.988;15.470;2022-08-21T12:35:39;0.40;;;0.40;;
22005;SDS011;11167;46.988;15.470;2022-08-21T12:37:51;0.40;;;0.40;;
22005;SDS011;11167;46.988;15.470;2022-08-21T12:39:54;0.30;;;0.30;;
22005;SDS011;11167;46.988;15.470;2022-08-21T12:44:10;0.40;;;0.40;;
22005;SDS011;11167;46.988;15.470;2022-08-21T12:46:25;1.02;;;0.50;;
22005;SDS011;11167;46.988;15.470;2022-08-21T12:50:43;0.50;;;0.40;;
22005;SDS011;11167;46.988;15.470;2022-08-21T12:53:06;0.40;;;0.40;;
22005;SDS011;11167;46.988;15.470;2022-08-21T12:55:15;0.40;;;0.40;;
22005;SDS011;11167;46.988;15.470;2022-08-21T12:57:23;0.50;;;0.40;;
22005;SDS011;11167;46.988;15.470;2022-08-21T12:59:23;0.20;;;0.20;;
22005;SDS011;11167;46.988;15.470;2022-08-21T13:01:25;0.40;;;0.40;;
22005;SDS011;11167;46.988;15.470;2022-08-21T13:03:29;0.60;;;0.40;;
22005;SDS011;11167;46.988;15.470;2022-08-21T13:05:33;0.30;;;0.30;;
22005;SDS011;11167;46.988;15.470;2022-08-21T13:07:36;0.40;;;0.40;;
22005;SDS011;11167;46.988;15.470;2022-08-21T13:09:44;0.40;;;0.40;;
22005;SDS011;11167;46.988;15.470;2022-08-21T13:11:47;0.30;;;0.30;;
22005;SDS011;11167;46.988;15.470;2022-08-21T13:13:50;0.20;;;0.20;;
22005;SDS011;11167;46.988;15.470;2022-08-21T13:17:59;0.45;;;0.30;;
22005;SDS011;11167;46.988;15.470;2022-08-21T13:20:08;0.30;;;0.30;;
22005;SDS011;11167;46.988;15.470;2022-08-21T13:22:12;0.28;;;0.28;;
22005;SDS011;11167;46.988;15.470;2022-08-21T13:24:22;0.40;;;0.30;;
22005;SDS011;11167;46.988;15.470;2022-08-21T13:26:29;0.33;;;0.33;;
22005;SDS011;11167;46.988;15.470;2022-08-21T13:28:35;0.30;;;0.30;;
22005;SDS011;11167;46.988;15.470;2022-08-21T13:30:37;0.30;;;0.30;;
22005;SDS011;11167;46.988;15.470;2022-08-21T13:32:44;0.25;;;0.25;;
22005;SDS011;11167;46.988;15.470;2022-08-21T13:34:47;0.13;;;0.13;;
22005;SDS011;11167;46.988;15.470;2022-08-21T13:36:50;0.20;;;0.20;;
22005;SDS011;11167;46.988;15.470;2022-08-21T13:38:53;0.13;;;0.13;;
22005;SDS011;11167;46.988;15.470;2022-08-21T13:40:56;0.75;;;0.35;;
22005;SDS011;11167;46.988;15.470;2022-08-21T13:43:12;0.30;;;0.30;;